sensor_id;sensor_type;location;lat;lon;timestamp;pressure;altitude;pressure_sealevel;temperature;humidity
43450;BME280;29041;42.266;23.110;2023-02-01T00:00:08;95946.16;;;1.21;86.28
43450;BME280;29041;42.266;23.110;2023-02-01T00:03:00;95962.47;;;1.07;87.66
43450;BME280;29041;42.266;23.110;2023-02-01T00:11:41;95940.19;;;0.93;87.35
43450;BME280;29041;42.266;23.110;2023-02-01T00:15:01;95916.59;;;0.81;86.99
43450;BME280;29041;42.266;23.110;2023-02-01T00:21:39;95948.09;;;1.46;86.85
43450;BME280;29041;42.266;23.110;2023-02-01T00:30:05;95928.94;;;1.18;86.36
43450;BME280;29041;42.266;23.110;2023-02-01T00:33:20;95946.78;;;1.38;86.77
43450;BME280;29041;42.266;23.110;2023-02-01T00:39:07;95958.50;;;1.05;89.13
43450;BME280;29041;42.266;23.110;2023-02-01T00:41:56;95942.84;;;0.93;90.15
43450;BME280;29041;42.266;23.110;2023-02-01T00:45:13;95963.59;;;1.12;90.26
43450;BME280;29041;42.266;23.110;2023-02-01T00:48:18;95944.41;;;0.89;91.36
43450;BME280;29041;42.266;23.110;2023-02-01T01:07:27;95896.72;;;0.36;92.80
43450;BME280;29041;42.266;23.110;2023-02-01T01:10:56;95879.69;;;0.16;92.33
43450;BME280;29041;42.266;23.110;2023-02-01T01:14:12;95897.53;;;0.36;92.56
43450;BME280;29041;42.266;23.110;2023-02-01T01:17:14;95937.16;;;0.36;92.72
43450;BME280;29041;42.266;23.110;2023-02-01T01:30:15;95890.75;;;0.13;91.48
43450;BME280;29041;42.266;23.110;2023-02-01T01:33:11;95902.31;;;0.07;91.31
43450;BME280;29041;42.266;23.110;2023-02-01T01:36:30;95892.66;;;0.23;89.41
43450;BME280;29041;42.266;23.110;2023-02-01T01:39:37;95921.03;;;0.00;91.47
43450;BME280;29041;42.266;23.110;2023-02-01T01:57:27;95924.13;;;-0.30;94.62
43450;BME280;29041;42.266;23.110;2023-02-01T02:00:30;95891.16;;;-0.01;92.59
43450;BME280;29041;42.266;23.110;2023-02-01T02:03:40;95915.06;;;0.15;92.23
43450;BME280;29041;42.266;23.110;2023-02-01T02:06:42;95888.22;;;-0.59;94.26
43450;BME280;29041;42.266;23.110;2023-02-01T02:09:34;95905.59;;;-0.63;96.23
43450;BME280;29041;42.266;23.110;2023-02-01T02:12:41;95928.28;;;-0.62;96.75
43450;BME280;29041;42.266;23.110;2023-02-01T02:16:06;95922.25;;;-0.80;98.75
43450;BME280;29041;42.266;23.110;2023-02-01T02:24:55;95950.38;;;-0.85;100.00
43450;BME280;29041;42.266;23.110;2023-02-01T02:34:10;95930.44;;;-0.81;99.82
43450;BME280;29041;42.266;23.110;2023-02-01T02:37:17;95892.41;;;-0.85;99.90
43450;BME280;29041;42.266;23.110;2023-02-01T02:40:31;95926.94;;;-0.65;97.83
43450;BME280;29041;42.266;23.110;2023-02-01T02:43:59;95909.44;;;-0.71;97.96
43450;BME280;29041;42.266;23.110;2023-02-01T02:47:19;95900.44;;;-0.75;97.77
43450;BME280;29041;42.266;23.110;2023-02-01T02:50:53;95948.44;;;-0.95;97.52
43450;BME280;29041;42.266;23.110;2023-02-01T02:54:04;95923.09;;;-0.96;97.69
43450;BME280;29041;42.266;23.110;2023-02-01T02:57:24;95928.09;;;-1.17;99.90
43450;BME280;29041;42.266;23.110;2023-02-01T03:23:49;95987.78;;;-0.88;100.00
43450;BME280;29041;42.266;23.110;2023-02-01T03:27:00;95955.19;;;-1.21;99.85
43450;BME280;29041;42.266;23.110;2023-02-01T03:30:41;95962.59;;;-1.18;99.72
43450;BME280;29041;42.266;23.110;2023-02-01T03:34:17;95994.69;;;-1.38;99.75
43450;BME280;29041;42.266;23.110;2023-02-01T04:13:37;95948.31;;;-0.39;93.24
43450;BME280;29041;42.266;23.110;2023-02-01T04:16:30;95952.38;;;-0.04;89.02
43450;BME280;29041;42.266;23.110;2023-02-01T04:27:31;95969.56;;;-0.01;88.80
43450;BME280;29041;42.266;23.110;2023-02-01T04:53:22;95961.03;;;0.19;84.06
43450;BME280;29041;42.266;23.110;2023-02-01T04:56:38;95963.78;;;0.29;82.41
43450;BME280;29041;42.266;23.110;2023-02-01T05:07:42;95962.84;;;0.46;82.48
43450;BME280;29041;42.266;23.110;2023-02-01T05:10:49;95996.56;;;0.66;82.00
43450;BME280;29041;42.266;23.110;2023-02-01T05:16:46;95999.88;;;0.84;82.48
43450;BME280;29041;42.266;23.110;2023-02-01T05:29:47;96017.56;;;0.78;81.79
43450;BME280;29041;42.266;23.110;2023-02-01T05:32:37;95992.47;;;0.48;82.54
43450;BME280;29041;42.266;23.110;2023-02-01T05:35:42;95979.50;;;0.46;82.20
43450;BME280;29041;42.266;23.110;2023-02-01T05:38:43;96039.22;;;0.80;83.11
43450;BME280;29041;42.266;23.110;2023-02-01T05:41:44;96007.22;;;0.44;83.13
43450;BME280;29041;42.266;23.110;2023-02-01T05:44:42;96049.38;;;0.93;82.32
43450;BME280;29041;42.266;23.110;2023-02-01T05:47:36;96034.41;;;0.72;82.13
43450;BME280;29041;42.266;23.110;2023-02-01T05:50:27;96009.03;;;0.71;81.45
43450;BME280;29041;42.266;23.110;2023-02-01T05:53:17;95996.97;;;0.53;80.74
43450;BME280;29041;42.266;23.110;2023-02-01T05:56:06;96008.75;;;1.05;80.72
43450;BME280;29041;42.266;23.110;2023-02-01T05:58:59;96044.09;;;1.36;79.78
43450;BME280;29041;42.266;23.110;2023-02-01T06:01:47;96039.75;;;1.20;80.76
43450;BME280;29041;42.266;23.110;2023-02-01T06:04:36;96062.06;;;1.34;80.29
43450;BME280;29041;42.266;23.110;2023-02-01T06:07:23;96019.88;;;1.07;79.43
43450;BME280;29041;42.266;23.110;2023-02-01T06:15:16;96063.47;;;1.42;80.11
43450;BME280;29041;42.266;23.110;2023-02-01T06:18:25;96038.13;;;1.08;80.66
43450;BME280;29041;42.266;23.110;2023-02-01T06:24:40;96021.88;;;1.32;80.54
43450;BME280;29041;42.266;23.110;2023-02-01T06:33:32;96028.28;;;1.04;82.08
43450;BME280;29041;42.266;23.110;2023-02-01T06:36:22;96034.44;;;1.52;82.25
43450;BME280;29041;42.266;23.110;2023-02-01T06:39:19;96035.97;;;1.43;82.33
43450;BME280;29041;42.266;23.110;2023-02-01T06:42:17;96064.41;;;1.73;82.00
43450;BME280;29041;42.266;23.110;2023-02-01T06:45:13;96015.84;;;1.42;80.81
43450;BME280;29041;42.266;23.110;2023-02-01T06:48:24;96052.09;;;1.41;82.89
43450;BME280;29041;42.266;23.110;2023-02-01T06:54:12;96064.47;;;1.79;81.68
43450;BME280;29041;42.266;23.110;2023-02-01T07:09:01;96075.63;;;1.86;80.26
43450;BME280;29041;42.266;23.110;2023-02-01T07:17:24;96053.41;;;1.97;80.14
43450;BME280;29041;42.266;23.110;2023-02-01T07:20:14;96044.13;;;2.00;79.65
43450;BME280;29041;42.266;23.110;2023-02-01T07:23:04;96058.41;;;1.88;79.67
43450;BME280;29041;42.266;23.110;2023-02-01T07:25:58;96068.94;;;1.73;80.17
43450;BME280;29041;42.266;23.110;2023-02-01T07:28:49;96120.19;;;1.56;81.44
43450;BME280;29041;42.266;23.110;2023-02-01T07:31:37;96083.38;;;1.17;82.49
43450;BME280;29041;42.266;23.110;2023-02-01T07:34:33;96116.94;;;1.49;82.20
43450;BME280;29041;42.266;23.110;2023-02-01T07:37:30;96116.28;;;1.69;83.03
43450;BME280;29041;42.266;23.110;2023-02-01T07:40:18;96110.81;;;1.43;82.29
43450;BME280;29041;42.266;23.110;2023-02-01T07:43:12;96123.19;;;1.70;82.97
43450;BME280;29041;42.266;23.110;2023-02-01T07:46:02;96119.03;;;1.85;82.50
43450;BME280;29041;42.266;23.110;2023-02-01T07:48:51;96123.88;;;2.09;81.49
43450;BME280;29041;42.266;23.110;2023-02-01T07:51:38;96120.81;;;1.74;82.39
43450;BME280;29041;42.266;23.110;2023-02-01T07:54:25;96130.09;;;1.77;82.54
43450;BME280;29041;42.266;23.110;2023-02-01T07:57:12;96128.47;;;1.70;82.08
43450;BME280;29041;42.266;23.110;2023-02-01T08:02:39;96127.13;;;2.21;81.43
43450;BME280;29041;42.266;23.110;2023-02-01T08:05:31;96127.63;;;2.18;80.42
43450;BME280;29041;42.266;23.110;2023-02-01T08:08:28;96132.34;;;2.00;81.11
43450;BME280;29041;42.266;23.110;2023-02-01T08:11:29;96088.13;;;1.53;82.24
43450;BME280;29041;42.266;23.110;2023-02-01T08:14:25;96133.34;;;1.89;81.36
43450;BME280;29041;42.266;23.110;2023-02-01T08:17:17;96141.41;;;2.15;80.94
43450;BME280;29041;42.266;23.110;2023-02-01T08:30:51;96150.72;;;2.28;80.09
43450;BME280;29041;42.266;23.110;2023-02-01T08:34:08;96159.50;;;2.28;80.96
43450;BME280;29041;42.266;23.110;2023-02-01T08:37:14;96159.88;;;1.99;82.11
43450;BME280;29041;42.266;23.110;2023-02-01T08:42:34;96121.88;;;1.73;83.74
43450;BME280;29041;42.266;23.110;2023-02-01T08:45:49;96137.59;;;1.95;82.88
43450;BME280;29041;42.266;23.110;2023-02-01T08:49:09;96159.97;;;2.15;83.61
43450;BME280;29041;42.266;23.110;2023-02-01T08:55:30;96145.69;;;2.26;82.25
43450;BME280;29041;42.266;23.110;2023-02-01T08:58:33;96164.03;;;2.38;82.07
43450;BME280;29041;42.266;23.110;2023-02-01T09:01:29;96134.81;;;2.22;83.54
43450;BME280;29041;42.266;23.110;2023-02-01T09:04:48;96164.50;;;2.19;84.14
43450;BME280;29041;42.266;23.110;2023-02-01T09:07:37;96132.56;;;1.94;84.40
43450;BME280;29041;42.266;23.110;2023-02-01T09:10:24;96138.44;;;2.01;85.25
43450;BME280;29041;42.266;23.110;2023-02-01T09:26:21;96135.63;;;2.28;83.38
43450;BME280;29041;42.266;23.110;2023-02-01T09:30:00;96110.19;;;2.22;83.89
43450;BME280;29041;42.266;23.110;2023-02-01T09:32:52;96113.44;;;2.55;82.67
43450;BME280;29041;42.266;23.110;2023-02-01T09:35:49;96138.38;;;2.54;83.75
43450;BME280;29041;42.266;23.110;2023-02-01T09:38:54;96133.66;;;2.66;81.77
43450;BME280;29041;42.266;23.110;2023-02-01T09:41:54;96078.50;;;2.79;81.13
43450;BME280;29041;42.266;23.110;2023-02-01T09:44:54;96127.84;;;2.95;81.15
43450;BME280;29041;42.266;23.110;2023-02-01T09:48:03;96098.16;;;3.40;79.96
43450;BME280;29041;42.266;23.110;2023-02-01T09:51:02;96106.88;;;3.61;78.95
43450;BME280;29041;42.266;23.110;2023-02-01T09:53:58;96100.38;;;4.08;77.00
43450;BME280;29041;42.266;23.110;2023-02-01T09:56:52;96082.19;;;3.60;77.48
43450;BME280;29041;42.266;23.110;2023-02-01T09:59:41;96114.47;;;4.09;77.35
43450;BME280;29041;42.266;23.110;2023-02-01T10:02:30;96113.94;;;4.07;75.93
43450;BME280;29041;42.266;23.110;2023-02-01T10:05:51;96103.22;;;4.27;75.92
43450;BME280;29041;42.266;23.110;2023-02-01T10:09:09;96102.41;;;4.82;75.57
43450;BME280;29041;42.266;23.110;2023-02-01T10:12:28;96108.06;;;4.70;74.25
43450;BME280;29041;42.266;23.110;2023-02-01T10:15:32;96110.91;;;4.29;74.34
43450;BME280;29041;42.266;23.110;2023-02-01T10:18:33;96103.13;;;4.48;73.77
43450;BME280;29041;42.266;23.110;2023-02-01T10:21:34;96108.06;;;4.15;73.67
43450;BME280;29041;42.266;23.110;2023-02-01T10:24:40;96100.41;;;3.93;75.01
43450;BME280;29041;42.266;23.110;2023-02-01T10:27:33;96099.69;;;3.67;76.98
43450;BME280;29041;42.266;23.110;2023-02-01T10:30:23;96096.22;;;3.81;75.92
43450;BME280;29041;42.266;23.110;2023-02-01T10:33:16;96085.81;;;3.90;76.55
43450;BME280;29041;42.266;23.110;2023-02-01T10:36:12;96092.47;;;4.53;73.58
43450;BME280;29041;42.266;23.110;2023-02-01T10:39:06;96087.03;;;4.74;72.16
43450;BME280;29041;42.266;23.110;2023-02-01T10:41:57;96096.84;;;4.28;72.80
43450;BME280;29041;42.266;23.110;2023-02-01T10:44:49;96092.13;;;4.15;73.69
43450;BME280;29041;42.266;23.110;2023-02-01T10:47:36;96088.50;;;4.45;71.04
43450;BME280;29041;42.266;23.110;2023-02-01T10:50:33;96085.72;;;4.66;70.71
43450;BME280;29041;42.266;23.110;2023-02-01T10:53:27;96073.13;;;4.42;70.93
43450;BME280;29041;42.266;23.110;2023-02-01T10:56:27;96064.25;;;4.57;71.60
43450;BME280;29041;42.266;23.110;2023-02-01T10:59:42;96063.97;;;4.64;70.72
43450;BME280;29041;42.266;23.110;2023-02-01T11:02:32;96055.34;;;4.78;69.25
43450;BME280;29041;42.266;23.110;2023-02-01T11:05:21;96062.09;;;5.34;69.18
43450;BME280;29041;42.266;23.110;2023-02-01T11:08:14;96067.34;;;5.93;65.20
43450;BME280;29041;42.266;23.110;2023-02-01T11:11:03;96044.84;;;5.55;69.60
43450;BME280;29041;42.266;23.110;2023-02-01T11:13:54;96064.31;;;5.80;68.01
43450;BME280;29041;42.266;23.110;2023-02-01T11:16:47;96062.78;;;6.23;64.23
43450;BME280;29041;42.266;23.110;2023-02-01T11:27:29;96058.34;;;5.35;65.44
43450;BME280;29041;42.266;23.110;2023-02-01T11:30:27;96056.66;;;5.44;64.66
43450;BME280;29041;42.266;23.110;2023-02-01T11:33:33;96055.94;;;5.63;65.06
43450;BME280;29041;42.266;23.110;2023-02-01T11:36:31;96036.59;;;5.28;64.41
43450;BME280;29041;42.266;23.110;2023-02-01T11:39:28;96058.31;;;5.40;64.17
43450;BME280;29041;42.266;23.110;2023-02-01T11:45:37;96041.53;;;5.10;64.25
43450;BME280;29041;42.266;23.110;2023-02-01T11:48:34;96048.50;;;5.06;64.81
43450;BME280;29041;42.266;23.110;2023-02-01T11:51:35;96033.16;;;4.92;64.25
43450;BME280;29041;42.266;23.110;2023-02-01T11:54:39;96023.25;;;4.98;64.13
43450;BME280;29041;42.266;23.110;2023-02-01T11:57:59;96063.53;;;5.21;64.11
43450;BME280;29041;42.266;23.110;2023-02-01T12:08:52;96015.75;;;8.79;51.91
43450;BME280;29041;42.266;23.110;2023-02-01T12:12:26;95966.41;;;9.66;48.28
43450;BME280;29041;42.266;23.110;2023-02-01T12:15:35;95928.44;;;8.92;47.07
43450;BME280;29041;42.266;23.110;2023-02-01T12:32:02;95915.28;;;8.50;46.19
43450;BME280;29041;42.266;23.110;2023-02-01T12:40:34;95940.84;;;9.51;44.43
43450;BME280;29041;42.266;23.110;2023-02-01T12:43:45;95953.19;;;10.62;41.63
43450;BME280;29041;42.266;23.110;2023-02-01T12:46:53;95930.13;;;10.61;40.44
43450;BME280;29041;42.266;23.110;2023-02-01T12:49:49;95902.56;;;9.77;41.46
43450;BME280;29041;42.266;23.110;2023-02-01T12:52:46;95905.91;;;9.82;41.21
43450;BME280;29041;42.266;23.110;2023-02-01T12:55:42;95931.72;;;9.52;42.79
43450;BME280;29041;42.266;23.110;2023-02-01T12:58:44;95916.56;;;8.84;43.63
43450;BME280;29041;42.266;23.110;2023-02-01T13:05:01;95937.31;;;9.82;43.12
43450;BME280;29041;42.266;23.110;2023-02-01T13:18:16;95937.97;;;10.05;41.22
43450;BME280;29041;42.266;23.110;2023-02-01T13:21:14;95920.16;;;9.43;41.49
43450;BME280;29041;42.266;23.110;2023-02-01T13:24:15;95891.38;;;9.17;43.08
43450;BME280;29041;42.266;23.110;2023-02-01T13:27:08;95891.03;;;8.78;43.72
43450;BME280;29041;42.266;23.110;2023-02-01T13:30:00;95908.91;;;9.81;40.74
43450;BME280;29041;42.266;23.110;2023-02-01T13:37:03;95889.06;;;10.52;37.59
43450;BME280;29041;42.266;23.110;2023-02-01T13:40:17;95899.50;;;10.45;39.80
43450;BME280;29041;42.266;23.110;2023-02-01T13:46:08;95927.25;;;10.31;39.40
43450;BME280;29041;42.266;23.110;2023-02-01T13:49:21;95883.31;;;9.08;40.63
43450;BME280;29041;42.266;23.110;2023-02-01T14:00:07;95931.03;;;9.38;40.46
43450;BME280;29041;42.266;23.110;2023-02-01T14:06:44;95881.56;;;9.61;40.25
43450;BME280;29041;42.266;23.110;2023-02-01T14:09:43;95930.97;;;9.29;40.29
43450;BME280;29041;42.266;23.110;2023-02-01T14:26:54;95895.19;;;7.66;44.14
43450;BME280;29041;42.266;23.110;2023-02-01T14:30:14;95911.75;;;7.40;44.96
43450;BME280;29041;42.266;23.110;2023-02-01T14:33:21;95945.88;;;7.57;45.25
43450;BME280;29041;42.266;23.110;2023-02-01T14:36:27;95903.31;;;7.19;45.72
43450;BME280;29041;42.266;23.110;2023-02-01T14:39:59;95917.31;;;6.82;46.94
43450;BME280;29041;42.266;23.110;2023-02-01T14:43:13;95932.56;;;6.96;47.08
43450;BME280;29041;42.266;23.110;2023-02-01T14:46:16;95918.75;;;7.22;46.12
43450;BME280;29041;42.266;23.110;2023-02-01T14:49:21;95900.03;;;6.80;47.21
43450;BME280;29041;42.266;23.110;2023-02-01T14:52:14;95908.50;;;6.68;48.13
43450;BME280;29041;42.266;23.110;2023-02-01T15:00:38;95892.97;;;6.37;48.16
43450;BME280;29041;42.266;23.110;2023-02-01T15:06:48;95953.53;;;7.03;48.76
43450;BME280;29041;42.266;23.110;2023-02-01T15:09:49;95944.72;;;6.36;50.46
43450;BME280;29041;42.266;23.110;2023-02-01T15:23:15;95958.28;;;6.21;50.52
43450;BME280;29041;42.266;23.110;2023-02-01T15:26:26;95935.75;;;5.88;51.11
43450;BME280;29041;42.266;23.110;2023-02-01T15:29:29;95944.56;;;5.89;50.88
43450;BME280;29041;42.266;23.110;2023-02-01T15:32:32;95930.56;;;5.78;51.90
43450;BME280;29041;42.266;23.110;2023-02-01T15:36:09;95933.00;;;5.75;52.39
43450;BME280;29041;42.266;23.110;2023-02-01T15:39:19;95936.81;;;6.12;53.13
43450;BME280;29041;42.266;23.110;2023-02-01T15:42:17;95888.91;;;6.07;52.95
43450;BME280;29041;42.266;23.110;2023-02-01T15:45:16;95930.75;;;6.25;53.01
43450;BME280;29041;42.266;23.110;2023-02-01T15:48:04;95918.13;;;5.93;53.53
43450;BME280;29041;42.266;23.110;2023-02-01T15:51:00;95919.66;;;5.99;53.04
43450;BME280;29041;42.266;23.110;2023-02-01T15:53:56;95913.63;;;5.69;52.91
43450;BME280;29041;42.266;23.110;2023-02-01T15:56:52;95905.94;;;5.67;53.08
43450;BME280;29041;42.266;23.110;2023-02-01T15:59:44;95913.88;;;5.92;53.18
43450;BME280;29041;42.266;23.110;2023-02-01T16:05:45;95925.72;;;5.61;54.52
43450;BME280;29041;42.266;23.110;2023-02-01T16:14:56;95942.22;;;5.15;55.96
43450;BME280;29041;42.266;23.110;2023-02-01T16:21:15;95913.91;;;4.70;55.94
43450;BME280;29041;42.266;23.110;2023-02-01T16:26:42;95949.41;;;4.16;59.36
43450;BME280;29041;42.266;23.110;2023-02-01T16:32:37;95945.88;;;4.31;60.02
43450;BME280;29041;42.266;23.110;2023-02-01T16:35:39;95914.78;;;3.86;60.19
43450;BME280;29041;42.266;23.110;2023-02-01T16:38:54;95918.03;;;3.78;61.50
43450;BME280;29041;42.266;23.110;2023-02-01T16:41:59;95914.44;;;3.48;62.50
43450;BME280;29041;42.266;23.110;2023-02-01T17:07:16;95948.78;;;3.13;67.51
43450;BME280;29041;42.266;23.110;2023-02-01T17:51:02;95957.97;;;1.61;74.88
43450;BME280;29041;42.266;23.110;2023-02-01T17:53:55;95985.03;;;1.79;75.88
43450;BME280;29041;42.266;23.110;2023-02-01T18:02:33;95982.84;;;1.65;75.89
43450;BME280;29041;42.266;23.110;2023-02-01T18:05:38;95995.03;;;1.71;76.91
43450;BME280;29041;42.266;23.110;2023-02-01T18:08:57;95951.56;;;1.47;77.22
43450;BME280;29041;42.266;23.110;2023-02-01T18:11:56;95967.06;;;1.96;74.79
43450;BME280;29041;42.266;23.110;2023-02-01T18:15:00;95956.94;;;1.62;73.54
43450;BME280;29041;42.266;23.110;2023-02-01T18:17:52;95988.44;;;1.69;76.22
43450;BME280;29041;42.266;23.110;2023-02-01T18:20:45;95953.28;;;1.94;74.31
43450;BME280;29041;42.266;23.110;2023-02-01T18:23:50;95958.13;;;1.39;77.45
43450;BME280;29041;42.266;23.110;2023-02-01T18:26:39;95978.81;;;1.42;79.15
43450;BME280;29041;42.266;23.110;2023-02-01T18:29:27;95934.69;;;1.00;79.16
43450;BME280;29041;42.266;23.110;2023-02-01T18:37:47;95924.25;;;0.83;79.71
43450;BME280;29041;42.266;23.110;2023-02-01T18:41:28;95930.84;;;0.75;79.77
43450;BME280;29041;42.266;23.110;2023-02-01T18:45:30;95949.03;;;0.71;79.75
43450;BME280;29041;42.266;23.110;2023-02-01T18:49:04;95978.53;;;0.95;79.85
43450;BME280;29041;42.266;23.110;2023-02-01T18:52:12;95943.50;;;1.16;77.84
43450;BME280;29041;42.266;23.110;2023-02-01T18:58:11;95909.63;;;0.65;80.70
43450;BME280;29041;42.266;23.110;2023-02-01T19:01:45;95950.94;;;0.81;78.79
43450;BME280;29041;42.266;23.110;2023-02-01T19:11:24;95970.94;;;0.67;81.73
43450;BME280;29041;42.266;23.110;2023-02-01T19:27:29;95980.81;;;0.17;86.18
43450;BME280;29041;42.266;23.110;2023-02-01T19:32:53;95959.94;;;-0.12;89.45
43450;BME280;29041;42.266;23.110;2023-02-01T19:35:58;95964.63;;;-0.20;88.02
43450;BME280;29041;42.266;23.110;2023-02-01T19:38:59;95935.22;;;-0.56;89.43
43450;BME280;29041;42.266;23.110;2023-02-01T19:42:10;95955.00;;;-0.31;89.00
43450;BME280;29041;42.266;23.110;2023-02-01T19:45:07;95963.09;;;-0.15;88.08
43450;BME280;29041;42.266;23.110;2023-02-01T19:47:55;95955.78;;;-0.08;87.45
43450;BME280;29041;42.266;23.110;2023-02-01T19:51:30;95976.53;;;0.10;86.07
43450;BME280;29041;42.266;23.110;2023-02-01T19:54:47;95969.16;;;0.12;88.07
43450;BME280;29041;42.266;23.110;2023-02-01T19:58:24;95922.94;;;0.10;86.13
43450;BME280;29041;42.266;23.110;2023-02-01T20:08:29;95966.28;;;0.46;84.97
43450;BME280;29041;42.266;23.110;2023-02-01T20:15:45;95942.41;;;0.69;84.95
43450;BME280;29041;42.266;23.110;2023-02-01T20:24:40;95928.09;;;0.65;83.89
43450;BME280;29041;42.266;23.110;2023-02-01T20:34:34;95929.69;;;0.66;82.73
43450;BME280;29041;42.266;23.110;2023-02-01T20:41:35;95963.69;;;1.32;80.82
43450;BME280;29041;42.266;23.110;2023-02-01T20:44:27;95912.03;;;1.19;78.65
43450;BME280;29041;42.266;23.110;2023-02-01T20:47:50;95938.81;;;1.33;78.51
43450;BME280;29041;42.266;23.110;2023-02-01T20:50:46;95913.81;;;1.03;80.16
43450;BME280;29041;42.266;23.110;2023-02-01T22:04:32;95927.78;;;0.18;86.84
43450;BME280;29041;42.266;23.110;2023-02-01T22:07:34;95973.16;;;0.47;86.76
43450;BME280;29041;42.266;23.110;2023-02-01T22:10:59;95946.59;;;0.65;84.86
43450;BME280;29041;42.266;23.110;2023-02-01T22:13:49;95958.72;;;0.55;87.40
43450;BME280;29041;42.266;23.110;2023-02-01T22:16:39;95947.47;;;0.38;88.03
43450;BME280;29041;42.266;23.110;2023-02-01T22:19:38;95950.91;;;0.38;87.86
43450;BME280;29041;42.266;23.110;2023-02-01T22:22:34;95924.47;;;0.38;85.96
43450;BME280;29041;42.266;23.110;2023-02-01T22:25:23;95971.78;;;0.72;86.28
43450;BME280;29041;42.266;23.110;2023-02-01T22:28:14;95959.47;;;0.88;84.79
43450;BME280;29041;42.266;23.110;2023-02-01T22:31:03;95953.84;;;0.79;85.48
43450;BME280;29041;42.266;23.110;2023-02-01T22:33:51;95928.88;;;0.60;86.13
43450;BME280;29041;42.266;23.110;2023-02-01T22:36:41;95943.66;;;0.56;87.36
43450;BME280;29041;42.266;23.110;2023-02-01T22:42:32;95944.06;;;1.23;82.88
43450;BME280;29041;42.266;23.110;2023-02-01T22:45:31;95964.25;;;1.39;81.63
43450;BME280;29041;42.266;23.110;2023-02-01T22:56:35;95962.84;;;0.78;87.30
43450;BME280;29041;42.266;23.110;2023-02-01T23:02:17;95945.00;;;0.26;91.89
43450;BME280;29041;42.266;23.110;2023-02-01T23:05:33;95950.25;;;0.58;90.10
43450;BME280;29041;42.266;23.110;2023-02-01T23:29:08;95949.91;;;0.44;91.00
43450;BME280;29041;42.266;23.110;2023-02-01T23:37:55;95955.81;;;0.24;93.14
43450;BME280;29041;42.266;23.110;2023-02-01T23:40:58;95966.34;;;0.52;92.88
43450;BME280;29041;42.266;23.110;2023-02-01T23:44:18;95992.47;;;0.48;90.29
43450;BME280;29041;42.266;23.110;2023-02-01T23:47:09;95954.34;;;0.39;89.78
